sensor_id;sensor_type;location;lat;lon;timestamp;temperature;humidity
23579;DHT22;11967;50.852;4.400;2022-12-07T00:01:20;9.90;99.90
23579;DHT22;11967;50.852;4.400;2022-12-07T00:03:47;9.90;99.90
23579;DHT22;11967;50.852;4.400;2022-12-07T00:06:15;9.90;99.90
23579;DHT22;11967;50.852;4.400;2022-12-07T00:08:41;9.90;99.90
23579;DHT22;11967;50.852;4.400;2022-12-07T00:11:10;10.00;99.90
23579;DHT22;11967;50.852;4.400;2022-12-07T00:13:36;10.00;99.90
23579;DHT22;11967;50.852;4.400;2022-12-07T00:16:07;9.90;99.90
23579;DHT22;11967;50.852;4.400;2022-12-07T00:18:33;9.80;99.90
23579;DHT22;11967;50.852;4.400;2022-12-07T00:21:03;9.80;99.90
23579;DHT22;11967;50.852;4.400;2022-12-07T00:23:29;9.80;99.90
23579;DHT22;11967;50.852;4.400;2022-12-07T00:25:55;9.80;99.90
23579;DHT22;11967;50.852;4.400;2022-12-07T00:28:20;9.80;99.90
23579;DHT22;11967;50.852;4.400;2022-12-07T00:30:46;9.80;99.90
23579;DHT22;11967;50.852;4.400;2022-12-07T00:33:11;9.80;99.90
23579;DHT22;11967;50.852;4.400;2022-12-07T00:35:37;9.80;99.90
23579;DHT22;11967;50.852;4.400;2022-12-07T00:38:03;9.60;99.90
23579;DHT22;11967;50.852;4.400;2022-12-07T00:40:29;9.60;99.90
23579;DHT22;11967;50.852;4.400;2022-12-07T00:42:55;9.50;99.90
23579;DHT22;11967;50.852;4.400;2022-12-07T00:45:20;9.50;99.90
23579;DHT22;11967;50.852;4.400;2022-12-07T00:47:46;9.50;99.90
23579;DHT22;11967;50.852;4.400;2022-12-07T00:50:11;9.60;99.90
23579;DHT22;11967;50.852;4.400;2022-12-07T00:52:37;9.60;99.90
23579;DHT22;11967;50.852;4.400;2022-12-07T00:55:03;9.60;99.90
23579;DHT22;11967;50.852;4.400;2022-12-07T00:57:30;9.50;99.90
23579;DHT22;11967;50.852;4.400;2022-12-07T00:59:56;9.60;99.90
23579;DHT22;11967;50.852;4.400;2022-12-07T01:02:23;9.50;99.90
23579;DHT22;11967;50.852;4.400;2022-12-07T01:04:48;9.50;99.90
23579;DHT22;11967;50.852;4.400;2022-12-07T01:07:22;9.40;99.90
23579;DHT22;11967;50.852;4.400;2022-12-07T01:10:08;9.40;99.90
23579;DHT22;11967;50.852;4.400;2022-12-07T01:12:34;9.30;99.90
23579;DHT22;11967;50.852;4.400;2022-12-07T01:14:59;9.40;99.90
23579;DHT22;11967;50.852;4.400;2022-12-07T01:17:25;9.40;99.90
23579;DHT22;11967;50.852;4.400;2022-12-07T01:19:51;9.30;99.90
23579;DHT22;11967;50.852;4.400;2022-12-07T01:22:16;9.30;99.90
23579;DHT22;11967;50.852;4.400;2022-12-07T01:24:42;9.40;99.90
23579;DHT22;11967;50.852;4.400;2022-12-07T01:27:07;9.30;99.90
23579;DHT22;11967;50.852;4.400;2022-12-07T01:29:33;9.30;99.90
23579;DHT22;11967;50.852;4.400;2022-12-07T01:31:59;9.30;99.90
23579;DHT22;11967;50.852;4.400;2022-12-07T01:34:25;9.30;99.90
23579;DHT22;11967;50.852;4.400;2022-12-07T01:36:51;9.30;99.90
23579;DHT22;11967;50.852;4.400;2022-12-07T01:39:16;9.20;99.90
23579;DHT22;11967;50.852;4.400;2022-12-07T01:41:42;9.30;99.90
23579;DHT22;11967;50.852;4.400;2022-12-07T01:44:26;9.30;99.90
23579;DHT22;11967;50.852;4.400;2022-12-07T01:46:54;9.40;99.90
23579;DHT22;11967;50.852;4.400;2022-12-07T01:54:29;9.30;99.90
23579;DHT22;11967;50.852;4.400;2022-12-07T01:56:56;9.30;99.90
23579;DHT22;11967;50.852;4.400;2022-12-07T01:59:24;9.30;99.90
23579;DHT22;11967;50.852;4.400;2022-12-07T02:01:52;9.40;99.90
23579;DHT22;11967;50.852;4.400;2022-12-07T02:04:19;9.50;99.90
23579;DHT22;11967;50.852;4.400;2022-12-07T02:06:45;9.50;99.90
23579;DHT22;11967;50.852;4.400;2022-12-07T02:09:12;9.60;99.90
23579;DHT22;11967;50.852;4.400;2022-12-07T02:11:38;9.60;99.90
23579;DHT22;11967;50.852;4.400;2022-12-07T02:14:04;9.70;99.90
23579;DHT22;11967;50.852;4.400;2022-12-07T02:21:58;9.50;99.90
23579;DHT22;11967;50.852;4.400;2022-12-07T02:27:36;9.40;99.90
23579;DHT22;11967;50.852;4.400;2022-12-07T02:32:41;9.40;99.90
23579;DHT22;11967;50.852;4.400;2022-12-07T02:35:26;9.50;99.90
23579;DHT22;11967;50.852;4.400;2022-12-07T02:40:36;9.40;99.90
23579;DHT22;11967;50.852;4.400;2022-12-07T02:43:17;9.40;99.90
23579;DHT22;11967;50.852;4.400;2022-12-07T02:45:45;9.60;99.90
23579;DHT22;11967;50.852;4.400;2022-12-07T02:48:14;9.50;99.90
23579;DHT22;11967;50.852;4.400;2022-12-07T02:50:48;9.40;99.90
23579;DHT22;11967;50.852;4.400;2022-12-07T02:53:34;9.30;99.90
23579;DHT22;11967;50.852;4.400;2022-12-07T02:56:48;9.30;99.90
23579;DHT22;11967;50.852;4.400;2022-12-07T03:13:38;9.30;99.90
23579;DHT22;11967;50.852;4.400;2022-12-07T03:16:15;9.30;99.90
23579;DHT22;11967;50.852;4.400;2022-12-07T03:18:55;9.20;99.90
23579;DHT22;11967;50.852;4.400;2022-12-07T03:21:32;9.20;99.90
23579;DHT22;11967;50.852;4.400;2022-12-07T03:24:00;9.20;99.90
23579;DHT22;11967;50.852;4.400;2022-12-07T03:26:34;9.20;99.90
23579;DHT22;11967;50.852;4.400;2022-12-07T03:32:37;9.20;99.90
23579;DHT22;11967;50.852;4.400;2022-12-07T03:35:40;9.20;99.90
23579;DHT22;11967;50.852;4.400;2022-12-07T03:38:18;9.20;99.90
23579;DHT22;11967;50.852;4.400;2022-12-07T03:43:12;9.20;99.90
23579;DHT22;11967;50.852;4.400;2022-12-07T03:45:43;9.20;99.90
23579;DHT22;11967;50.852;4.400;2022-12-07T03:51:38;9.10;99.90
23579;DHT22;11967;50.852;4.400;2022-12-07T03:54:24;9.10;99.90
23579;DHT22;11967;50.852;4.400;2022-12-07T03:56:52;9.10;99.90
23579;DHT22;11967;50.852;4.400;2022-12-07T03:59:19;9.10;99.90
23579;DHT22;11967;50.852;4.400;2022-12-07T04:01:52;9.00;99.90
23579;DHT22;11967;50.852;4.400;2022-12-07T04:04:18;9.00;99.90
23579;DHT22;11967;50.852;4.400;2022-12-07T04:06:43;9.10;99.90
23579;DHT22;11967;50.852;4.400;2022-12-07T04:09:09;9.10;99.90
23579;DHT22;11967;50.852;4.400;2022-12-07T04:11:36;9.00;99.90
23579;DHT22;11967;50.852;4.400;2022-12-07T04:14:01;9.00;99.90
23579;DHT22;11967;50.852;4.400;2022-12-07T04:16:53;9.00;99.90
23579;DHT22;11967;50.852;4.400;2022-12-07T04:19:30;9.00;99.90
23579;DHT22;11967;50.852;4.400;2022-12-07T04:21:56;9.10;99.90
23579;DHT22;11967;50.852;4.400;2022-12-07T04:24:32;9.10;99.90
23579;DHT22;11967;50.852;4.400;2022-12-07T04:26:58;9.00;99.90
23579;DHT22;11967;50.852;4.400;2022-12-07T04:29:24;9.10;99.90
23579;DHT22;11967;50.852;4.400;2022-12-07T04:31:50;9.00;99.90
23579;DHT22;11967;50.852;4.400;2022-12-07T04:34:17;9.00;99.90
23579;DHT22;11967;50.852;4.400;2022-12-07T04:36:43;9.00;99.90
23579;DHT22;11967;50.852;4.400;2022-12-07T04:39:18;9.00;99.90
23579;DHT22;11967;50.852;4.400;2022-12-07T04:41:44;9.10;99.90
23579;DHT22;11967;50.852;4.400;2022-12-07T04:44:11;9.00;99.90
23579;DHT22;11967;50.852;4.400;2022-12-07T04:46:39;9.00;99.90
23579;DHT22;11967;50.852;4.400;2022-12-07T04:49:05;9.00;99.90
23579;DHT22;11967;50.852;4.400;2022-12-07T04:51:31;8.90;99.90
23579;DHT22;11967;50.852;4.400;2022-12-07T04:53:57;8.80;99.90
23579;DHT22;11967;50.852;4.400;2022-12-07T04:56:23;8.90;99.90
23579;DHT22;11967;50.852;4.400;2022-12-07T04:58:49;8.80;99.90
23579;DHT22;11967;50.852;4.400;2022-12-07T05:01:16;8.80;99.90
23579;DHT22;11967;50.852;4.400;2022-12-07T05:03:42;8.80;99.90
23579;DHT22;11967;50.852;4.400;2022-12-07T05:06:09;8.70;99.90
23579;DHT22;11967;50.852;4.400;2022-12-07T05:08:35;8.80;99.90
23579;DHT22;11967;50.852;4.400;2022-12-07T05:11:01;8.80;99.90
23579;DHT22;11967;50.852;4.400;2022-12-07T05:13:27;8.80;99.90
23579;DHT22;11967;50.852;4.400;2022-12-07T05:15:53;8.90;99.90
23579;DHT22;11967;50.852;4.400;2022-12-07T05:18:18;8.80;99.90
23579;DHT22;11967;50.852;4.400;2022-12-07T05:20:44;8.80;99.90
23579;DHT22;11967;50.852;4.400;2022-12-07T05:23:10;8.90;99.90
23579;DHT22;11967;50.852;4.400;2022-12-07T05:25:36;8.80;99.90
23579;DHT22;11967;50.852;4.400;2022-12-07T05:28:02;8.80;99.90
23579;DHT22;11967;50.852;4.400;2022-12-07T05:30:28;8.70;99.90
23579;DHT22;11967;50.852;4.400;2022-12-07T05:32:54;8.80;99.90
23579;DHT22;11967;50.852;4.400;2022-12-07T05:35:20;8.90;99.90
23579;DHT22;11967;50.852;4.400;2022-12-07T05:37:45;8.70;99.90
23579;DHT22;11967;50.852;4.400;2022-12-07T05:40:14;8.80;99.90
23579;DHT22;11967;50.852;4.400;2022-12-07T05:42:40;8.70;99.90
23579;DHT22;11967;50.852;4.400;2022-12-07T05:45:07;8.70;99.90
23579;DHT22;11967;50.852;4.400;2022-12-07T05:47:34;8.70;99.90
23579;DHT22;11967;50.852;4.400;2022-12-07T05:50:00;8.70;99.90
23579;DHT22;11967;50.852;4.400;2022-12-07T05:52:26;8.70;99.90
23579;DHT22;11967;50.852;4.400;2022-12-07T05:54:52;8.70;99.90
23579;DHT22;11967;50.852;4.400;2022-12-07T05:57:18;8.80;99.90
23579;DHT22;11967;50.852;4.400;2022-12-07T05:59:44;8.70;99.90
23579;DHT22;11967;50.852;4.400;2022-12-07T06:02:14;8.80;99.90
23579;DHT22;11967;50.852;4.400;2022-12-07T06:04:45;8.80;99.90
23579;DHT22;11967;50.852;4.400;2022-12-07T06:07:12;8.80;99.90
23579;DHT22;11967;50.852;4.400;2022-12-07T06:09:38;8.80;99.90
23579;DHT22;11967;50.852;4.400;2022-12-07T06:12:05;8.90;99.90
23579;DHT22;11967;50.852;4.400;2022-12-07T06:14:49;8.90;99.90
23579;DHT22;11967;50.852;4.400;2022-12-07T06:17:15;9.10;99.90
23579;DHT22;11967;50.852;4.400;2022-12-07T06:19:41;8.90;99.90
23579;DHT22;11967;50.852;4.400;2022-12-07T06:22:09;9.00;99.90
23579;DHT22;11967;50.852;4.400;2022-12-07T06:24:36;9.00;99.90
23579;DHT22;11967;50.852;4.400;2022-12-07T06:27:02;9.00;99.90
23579;DHT22;11967;50.852;4.400;2022-12-07T06:29:28;9.10;99.90
23579;DHT22;11967;50.852;4.400;2022-12-07T06:31:53;9.00;99.90
23579;DHT22;11967;50.852;4.400;2022-12-07T06:34:23;8.90;99.90
23579;DHT22;11967;50.852;4.400;2022-12-07T06:36:50;8.90;99.90
23579;DHT22;11967;50.852;4.400;2022-12-07T06:39:23;8.90;99.90
23579;DHT22;11967;50.852;4.400;2022-12-07T06:41:49;8.90;99.90
23579;DHT22;11967;50.852;4.400;2022-12-07T06:44:17;8.80;99.90
23579;DHT22;11967;50.852;4.400;2022-12-07T06:46:42;8.80;99.90
23579;DHT22;11967;50.852;4.400;2022-12-07T06:49:08;8.80;99.90
23579;DHT22;11967;50.852;4.400;2022-12-07T06:51:34;8.80;99.90
23579;DHT22;11967;50.852;4.400;2022-12-07T06:54:10;8.90;99.90
23579;DHT22;11967;50.852;4.400;2022-12-07T06:56:38;8.90;99.90
23579;DHT22;11967;50.852;4.400;2022-12-07T06:59:04;8.90;99.90
23579;DHT22;11967;50.852;4.400;2022-12-07T07:01:31;8.80;99.90
23579;DHT22;11967;50.852;4.400;2022-12-07T07:03:58;8.80;99.90
23579;DHT22;11967;50.852;4.400;2022-12-07T07:06:23;8.90;99.90
23579;DHT22;11967;50.852;4.400;2022-12-07T07:08:49;8.90;99.90
23579;DHT22;11967;50.852;4.400;2022-12-07T07:11:14;9.00;99.90
23579;DHT22;11967;50.852;4.400;2022-12-07T07:13:40;9.00;99.90
23579;DHT22;11967;50.852;4.400;2022-12-07T07:16:06;9.10;99.90
23579;DHT22;11967;50.852;4.400;2022-12-07T07:18:32;9.20;99.90
23579;DHT22;11967;50.852;4.400;2022-12-07T07:20:57;9.20;99.90
23579;DHT22;11967;50.852;4.400;2022-12-07T07:23:23;9.10;99.90
23579;DHT22;11967;50.852;4.400;2022-12-07T07:25:49;9.20;99.90
23579;DHT22;11967;50.852;4.400;2022-12-07T07:28:15;9.20;99.90
23579;DHT22;11967;50.852;4.400;2022-12-07T07:30:41;9.10;99.90
23579;DHT22;11967;50.852;4.400;2022-12-07T07:33:07;9.10;99.90
23579;DHT22;11967;50.852;4.400;2022-12-07T07:35:34;9.10;99.90
23579;DHT22;11967;50.852;4.400;2022-12-07T07:38:00;9.10;99.90
23579;DHT22;11967;50.852;4.400;2022-12-07T07:40:27;9.20;99.90
23579;DHT22;11967;50.852;4.400;2022-12-07T07:42:54;9.20;99.90
23579;DHT22;11967;50.852;4.400;2022-12-07T07:45:21;9.10;99.90
23579;DHT22;11967;50.852;4.400;2022-12-07T07:47:47;9.00;99.90
23579;DHT22;11967;50.852;4.400;2022-12-07T07:50:13;9.00;99.90
23579;DHT22;11967;50.852;4.400;2022-12-07T07:52:39;9.10;99.90
23579;DHT22;11967;50.852;4.400;2022-12-07T07:55:05;9.20;99.90
23579;DHT22;11967;50.852;4.400;2022-12-07T07:57:31;9.10;99.90
23579;DHT22;11967;50.852;4.400;2022-12-07T07:59:56;9.00;99.90
23579;DHT22;11967;50.852;4.400;2022-12-07T08:02:25;9.00;99.90
23579;DHT22;11967;50.852;4.400;2022-12-07T08:04:50;9.00;99.90
23579;DHT22;11967;50.852;4.400;2022-12-07T08:07:16;8.90;99.90
23579;DHT22;11967;50.852;4.400;2022-12-07T08:09:41;9.00;99.90
23579;DHT22;11967;50.852;4.400;2022-12-07T08:12:08;9.00;99.90
23579;DHT22;11967;50.852;4.400;2022-12-07T08:14:34;9.10;99.90
23579;DHT22;11967;50.852;4.400;2022-12-07T08:17:00;9.00;99.90
23579;DHT22;11967;50.852;4.400;2022-12-07T08:19:26;9.00;99.90
23579;DHT22;11967;50.852;4.400;2022-12-07T08:21:52;9.00;99.90
23579;DHT22;11967;50.852;4.400;2022-12-07T08:24:17;9.00;99.90
23579;DHT22;11967;50.852;4.400;2022-12-07T08:26:43;9.00;99.90
23579;DHT22;11967;50.852;4.400;2022-12-07T08:29:09;9.00;99.90
23579;DHT22;11967;50.852;4.400;2022-12-07T08:31:35;9.00;99.90
23579;DHT22;11967;50.852;4.400;2022-12-07T08:34:01;9.10;99.90
23579;DHT22;11967;50.852;4.400;2022-12-07T08:36:26;9.10;99.90
23579;DHT22;11967;50.852;4.400;2022-12-07T08:38:52;9.00;99.90
23579;DHT22;11967;50.852;4.400;2022-12-07T08:41:19;9.00;99.90
23579;DHT22;11967;50.852;4.400;2022-12-07T08:43:44;9.00;99.90
23579;DHT22;11967;50.852;4.400;2022-12-07T08:46:18;9.00;99.90
23579;DHT22;11967;50.852;4.400;2022-12-07T08:48:51;9.00;99.90
23579;DHT22;11967;50.852;4.400;2022-12-07T08:51:17;9.00;99.90
23579;DHT22;11967;50.852;4.400;2022-12-07T08:53:43;9.10;99.90
23579;DHT22;11967;50.852;4.400;2022-12-07T08:56:10;9.00;99.90
23579;DHT22;11967;50.852;4.400;2022-12-07T08:58:37;9.10;99.90
23579;DHT22;11967;50.852;4.400;2022-12-07T09:01:04;9.20;99.90
23579;DHT22;11967;50.852;4.400;2022-12-07T09:03:30;9.20;99.90
23579;DHT22;11967;50.852;4.400;2022-12-07T09:05:57;9.30;99.90
23579;DHT22;11967;50.852;4.400;2022-12-07T09:08:28;9.20;99.90
23579;DHT22;11967;50.852;4.400;2022-12-07T09:10:58;9.30;99.90
23579;DHT22;11967;50.852;4.400;2022-12-07T09:13:23;9.30;99.90
23579;DHT22;11967;50.852;4.400;2022-12-07T09:15:49;9.30;99.90
23579;DHT22;11967;50.852;4.400;2022-12-07T09:18:15;9.30;99.90
23579;DHT22;11967;50.852;4.400;2022-12-07T09:20:40;9.30;99.90
23579;DHT22;11967;50.852;4.400;2022-12-07T09:23:07;9.30;99.90
23579;DHT22;11967;50.852;4.400;2022-12-07T09:25:33;9.40;99.90
23579;DHT22;11967;50.852;4.400;2022-12-07T09:27:59;9.40;99.90
23579;DHT22;11967;50.852;4.400;2022-12-07T09:30:26;9.40;99.90
23579;DHT22;11967;50.852;4.400;2022-12-07T09:32:56;9.50;99.90
23579;DHT22;11967;50.852;4.400;2022-12-07T09:35:23;9.40;99.90
23579;DHT22;11967;50.852;4.400;2022-12-07T09:37:49;9.40;99.90
23579;DHT22;11967;50.852;4.400;2022-12-07T09:40:16;9.40;99.90
23579;DHT22;11967;50.852;4.400;2022-12-07T09:42:56;9.40;99.90
23579;DHT22;11967;50.852;4.400;2022-12-07T09:45:30;9.40;99.90
23579;DHT22;11967;50.852;4.400;2022-12-07T09:47:57;9.50;99.90
23579;DHT22;11967;50.852;4.400;2022-12-07T09:50:33;9.50;99.90
23579;DHT22;11967;50.852;4.400;2022-12-07T09:53:24;9.70;99.90
23579;DHT22;11967;50.852;4.400;2022-12-07T09:55:50;9.70;99.90
23579;DHT22;11967;50.852;4.400;2022-12-07T09:58:35;9.70;99.90
23579;DHT22;11967;50.852;4.400;2022-12-07T10:01:14;9.60;99.90
23579;DHT22;11967;50.852;4.400;2022-12-07T10:03:53;9.60;99.90
23579;DHT22;11967;50.852;4.400;2022-12-07T10:06:20;9.60;99.90
23579;DHT22;11967;50.852;4.400;2022-12-07T10:08:46;9.50;99.90
23579;DHT22;11967;50.852;4.400;2022-12-07T10:14:36;9.60;99.90
23579;DHT22;11967;50.852;4.400;2022-12-07T10:17:02;9.70;99.90
23579;DHT22;11967;50.852;4.400;2022-12-07T10:19:29;9.70;99.90
23579;DHT22;11967;50.852;4.400;2022-12-07T10:22:17;9.70;99.90
23579;DHT22;11967;50.852;4.400;2022-12-07T10:24:46;9.70;99.90
23579;DHT22;11967;50.852;4.400;2022-12-07T10:27:36;9.70;99.90
23579;DHT22;11967;50.852;4.400;2022-12-07T10:30:07;9.70;99.90
23579;DHT22;11967;50.852;4.400;2022-12-07T10:32:35;9.70;99.90
23579;DHT22;11967;50.852;4.400;2022-12-07T10:35:20;9.60;99.90
23579;DHT22;11967;50.852;4.400;2022-12-07T10:37:47;9.50;99.90
23579;DHT22;11967;50.852;4.400;2022-12-07T10:40:31;9.60;99.90
23579;DHT22;11967;50.852;4.400;2022-12-07T10:43:16;9.50;99.90
23579;DHT22;11967;50.852;4.400;2022-12-07T10:48:38;9.50;99.90
23579;DHT22;11967;50.852;4.400;2022-12-07T10:51:24;9.50;99.90
23579;DHT22;11967;50.852;4.400;2022-12-07T10:54:01;9.50;99.90
23579;DHT22;11967;50.852;4.400;2022-12-07T11:02:47;9.60;99.90
23579;DHT22;11967;50.852;4.400;2022-12-07T11:05:38;9.70;99.90
23579;DHT22;11967;50.852;4.400;2022-12-07T11:08:47;9.80;99.90
23579;DHT22;11967;50.852;4.400;2022-12-07T11:11:14;9.80;99.90
23579;DHT22;11967;50.852;4.400;2022-12-07T11:19:20;9.90;99.90
23579;DHT22;11967;50.852;4.400;2022-12-07T11:22:01;9.90;99.90
23579;DHT22;11967;50.852;4.400;2022-12-07T11:25:00;9.90;99.90
23579;DHT22;11967;50.852;4.400;2022-12-07T11:27:40;9.90;99.90
23579;DHT22;11967;50.852;4.400;2022-12-07T11:30:25;9.90;99.90
23579;DHT22;11967;50.852;4.400;2022-12-07T11:35:52;10.10;99.90
23579;DHT22;11967;50.852;4.400;2022-12-07T11:38:34;10.10;99.90
23579;DHT22;11967;50.852;4.400;2022-12-07T11:41:04;10.20;99.90
23579;DHT22;11967;50.852;4.400;2022-12-07T11:46:50;10.50;99.90
23579;DHT22;11967;50.852;4.400;2022-12-07T11:49:27;10.70;99.90
23579;DHT22;11967;50.852;4.400;2022-12-07T11:51:59;10.80;99.90
23579;DHT22;11967;50.852;4.400;2022-12-07T11:54:32;11.20;99.90
23579;DHT22;11967;50.852;4.400;2022-12-07T11:57:04;11.30;99.90
23579;DHT22;11967;50.852;4.400;2022-12-07T11:59:38;11.90;99.90
23579;DHT22;11967;50.852;4.400;2022-12-07T12:02:16;12.20;99.90
23579;DHT22;11967;50.852;4.400;2022-12-07T12:04:50;12.30;99.90
23579;DHT22;11967;50.852;4.400;2022-12-07T12:07:21;12.50;99.90
23579;DHT22;11967;50.852;4.400;2022-12-07T12:20:32;12.40;99.90
23579;DHT22;11967;50.852;4.400;2022-12-07T12:23:17;12.20;99.90
23579;DHT22;11967;50.852;4.400;2022-12-07T12:26:21;11.90;99.90
23579;DHT22;11967;50.852;4.400;2022-12-07T12:29:19;11.70;99.90
23579;DHT22;11967;50.852;4.400;2022-12-07T12:31:47;11.60;99.90
23579;DHT22;11967;50.852;4.400;2022-12-07T12:34:57;11.60;99.90
23579;DHT22;11967;50.852;4.400;2022-12-07T12:42:50;12.50;99.90
23579;DHT22;11967;50.852;4.400;2022-12-07T12:45:23;12.80;99.90
23579;DHT22;11967;50.852;4.400;2022-12-07T12:48:43;13.50;99.90
23579;DHT22;11967;50.852;4.400;2022-12-07T12:51:53;14.00;99.90
23579;DHT22;11967;50.852;4.400;2022-12-07T12:59:36;15.10;99.90
23579;DHT22;11967;50.852;4.400;2022-12-07T13:15:49;12.00;99.90
23579;DHT22;11967;50.852;4.400;2022-12-07T13:21:00;11.70;99.90
23579;DHT22;11967;50.852;4.400;2022-12-07T13:26:19;11.30;99.90
23579;DHT22;11967;50.852;4.400;2022-12-07T13:28:48;11.30;99.90
23579;DHT22;11967;50.852;4.400;2022-12-07T13:34:40;11.30;99.90
23579;DHT22;11967;50.852;4.400;2022-12-07T13:37:29;11.30;99.90
23579;DHT22;11967;50.852;4.400;2022-12-07T13:40:18;11.30;99.90
23579;DHT22;11967;50.852;4.400;2022-12-07T13:42:44;11.30;99.90
23579;DHT22;11967;50.852;4.400;2022-12-07T13:45:30;11.30;99.90
23579;DHT22;11967;50.852;4.400;2022-12-07T13:48:31;11.20;99.90
23579;DHT22;11967;50.852;4.400;2022-12-07T13:50:59;11.00;99.90
23579;DHT22;11967;50.852;4.400;2022-12-07T13:53:26;11.00;99.90
23579;DHT22;11967;50.852;4.400;2022-12-07T13:55:59;11.10;99.90
23579;DHT22;11967;50.852;4.400;2022-12-07T13:58:27;11.00;99.90
23579;DHT22;11967;50.852;4.400;2022-12-07T14:00:55;10.90;99.90
23579;DHT22;11967;50.852;4.400;2022-12-07T14:03:28;10.90;99.90
23579;DHT22;11967;50.852;4.400;2022-12-07T14:06:23;10.80;99.90
23579;DHT22;11967;50.852;4.400;2022-12-07T14:09:05;10.70;99.90
23579;DHT22;11967;50.852;4.400;2022-12-07T14:11:31;10.70;99.90
23579;DHT22;11967;50.852;4.400;2022-12-07T14:13:59;10.50;99.90
23579;DHT22;11967;50.852;4.400;2022-12-07T14:16:34;10.60;99.90
23579;DHT22;11967;50.852;4.400;2022-12-07T14:19:03;10.60;99.90
23579;DHT22;11967;50.852;4.400;2022-12-07T14:21:31;10.70;99.90
23579;DHT22;11967;50.852;4.400;2022-12-07T14:24:16;10.70;99.90
23579;DHT22;11967;50.852;4.400;2022-12-07T14:26:47;10.80;99.90
23579;DHT22;11967;50.852;4.400;2022-12-07T14:31:52;10.80;99.90
23579;DHT22;11967;50.852;4.400;2022-12-07T14:34:23;11.00;99.90
23579;DHT22;11967;50.852;4.400;2022-12-07T14:36:49;11.00;99.90
23579;DHT22;11967;50.852;4.400;2022-12-07T14:39:15;11.00;99.90
23579;DHT22;11967;50.852;4.400;2022-12-07T14:41:40;11.00;99.90
23579;DHT22;11967;50.852;4.400;2022-12-07T14:44:23;11.00;99.90
23579;DHT22;11967;50.852;4.400;2022-12-07T14:46:52;10.90;99.90
23579;DHT22;11967;50.852;4.400;2022-12-07T14:49:18;10.90;99.90
23579;DHT22;11967;50.852;4.400;2022-12-07T14:51:45;10.80;99.90
23579;DHT22;11967;50.852;4.400;2022-12-07T14:54:17;10.90;99.90
23579;DHT22;11967;50.852;4.400;2022-12-07T14:56:43;10.90;99.90
23579;DHT22;11967;50.852;4.400;2022-12-07T14:59:10;10.90;99.90
23579;DHT22;11967;50.852;4.400;2022-12-07T15:01:36;11.00;99.90
23579;DHT22;11967;50.852;4.400;2022-12-07T15:04:01;11.00;99.90
23579;DHT22;11967;50.852;4.400;2022-12-07T15:06:27;11.00;99.90
23579;DHT22;11967;50.852;4.400;2022-12-07T15:08:52;11.00;99.90
23579;DHT22;11967;50.852;4.400;2022-12-07T15:11:18;11.00;99.90
23579;DHT22;11967;50.852;4.400;2022-12-07T15:13:44;10.80;99.90
23579;DHT22;11967;50.852;4.400;2022-12-07T15:16:29;10.80;99.90
23579;DHT22;11967;50.852;4.400;2022-12-07T15:18:54;10.90;99.90
23579;DHT22;11967;50.852;4.400;2022-12-07T15:21:20;10.90;99.90
23579;DHT22;11967;50.852;4.400;2022-12-07T15:23:49;10.90;99.90
23579;DHT22;11967;50.852;4.400;2022-12-07T15:26:15;10.90;99.90
23579;DHT22;11967;50.852;4.400;2022-12-07T15:28:41;10.90;99.90
23579;DHT22;11967;50.852;4.400;2022-12-07T15:31:14;10.80;99.90
23579;DHT22;11967;50.852;4.400;2022-12-07T15:33:40;10.90;99.90
23579;DHT22;11967;50.852;4.400;2022-12-07T15:36:20;10.90;99.90
23579;DHT22;11967;50.852;4.400;2022-12-07T15:38:47;10.90;99.90
23579;DHT22;11967;50.852;4.400;2022-12-07T15:41:13;10.90;99.90
23579;DHT22;11967;50.852;4.400;2022-12-07T15:43:38;11.00;99.90
23579;DHT22;11967;50.852;4.400;2022-12-07T15:46:23;10.90;99.90
23579;DHT22;11967;50.852;4.400;2022-12-07T15:48:48;10.90;99.90
23579;DHT22;11967;50.852;4.400;2022-12-07T15:51:14;10.80;99.90
23579;DHT22;11967;50.852;4.400;2022-12-07T15:53:39;10.70;99.90
23579;DHT22;11967;50.852;4.400;2022-12-07T15:56:06;10.60;99.90
23579;DHT22;11967;50.852;4.400;2022-12-07T15:58:33;10.60;99.90
23579;DHT22;11967;50.852;4.400;2022-12-07T16:00:58;10.70;99.90
23579;DHT22;11967;50.852;4.400;2022-12-07T16:03:24;10.60;99.90
23579;DHT22;11967;50.852;4.400;2022-12-07T16:05:50;10.70;99.90
23579;DHT22;11967;50.852;4.400;2022-12-07T16:08:16;10.50;99.90
23579;DHT22;11967;50.852;4.400;2022-12-07T16:10:42;10.60;99.90
23579;DHT22;11967;50.852;4.400;2022-12-07T16:13:09;10.50;99.90
23579;DHT22;11967;50.852;4.400;2022-12-07T16:15:41;10.60;99.90
23579;DHT22;11967;50.852;4.400;2022-12-07T16:18:07;10.60;99.90
23579;DHT22;11967;50.852;4.400;2022-12-07T16:20:33;10.60;99.90
23579;DHT22;11967;50.852;4.400;2022-12-07T16:22:59;10.60;99.90
23579;DHT22;11967;50.852;4.400;2022-12-07T16:25:25;10.60;99.90
23579;DHT22;11967;50.852;4.400;2022-12-07T16:27:51;10.60;99.90
23579;DHT22;11967;50.852;4.400;2022-12-07T16:30:17;10.60;99.90
23579;DHT22;11967;50.852;4.400;2022-12-07T16:32:43;10.40;99.90
23579;DHT22;11967;50.852;4.400;2022-12-07T16:35:09;10.40;99.90
23579;DHT22;11967;50.852;4.400;2022-12-07T16:37:35;10.40;99.90
23579;DHT22;11967;50.852;4.400;2022-12-07T16:40:01;10.30;99.90
23579;DHT22;11967;50.852;4.400;2022-12-07T16:42:26;10.30;99.90
23579;DHT22;11967;50.852;4.400;2022-12-07T16:44:56;10.30;99.90
23579;DHT22;11967;50.852;4.400;2022-12-07T16:47:22;10.30;99.90
23579;DHT22;11967;50.852;4.400;2022-12-07T16:49:47;10.40;99.90
23579;DHT22;11967;50.852;4.400;2022-12-07T16:52:13;10.40;99.90
23579;DHT22;11967;50.852;4.400;2022-12-07T16:54:39;10.40;99.90
23579;DHT22;11967;50.852;4.400;2022-12-07T16:57:04;10.40;99.90
23579;DHT22;11967;50.852;4.400;2022-12-07T16:59:30;10.50;99.90
23579;DHT22;11967;50.852;4.400;2022-12-07T17:01:56;10.40;99.90
23579;DHT22;11967;50.852;4.400;2022-12-07T17:04:21;10.30;99.90
23579;DHT22;11967;50.852;4.400;2022-12-07T17:06:47;10.30;99.90
23579;DHT22;11967;50.852;4.400;2022-12-07T17:09:13;10.30;99.90
23579;DHT22;11967;50.852;4.400;2022-12-07T17:11:38;10.30;99.90
23579;DHT22;11967;50.852;4.400;2022-12-07T17:14:04;10.30;99.90
23579;DHT22;11967;50.852;4.400;2022-12-07T17:16:48;10.30;99.90
23579;DHT22;11967;50.852;4.400;2022-12-07T17:19:15;10.40;99.90
23579;DHT22;11967;50.852;4.400;2022-12-07T17:21:42;10.30;99.90
23579;DHT22;11967;50.852;4.400;2022-12-07T17:24:10;10.30;99.90
23579;DHT22;11967;50.852;4.400;2022-12-07T17:26:36;10.40;99.90
23579;DHT22;11967;50.852;4.400;2022-12-07T17:29:04;10.40;99.90
23579;DHT22;11967;50.852;4.400;2022-12-07T17:31:30;10.40;99.90
23579;DHT22;11967;50.852;4.400;2022-12-07T17:33:57;10.40;99.90
23579;DHT22;11967;50.852;4.400;2022-12-07T17:36:26;10.40;99.90
23579;DHT22;11967;50.852;4.400;2022-12-07T17:38:52;10.30;99.90
23579;DHT22;11967;50.852;4.400;2022-12-07T17:41:20;10.40;99.90
23579;DHT22;11967;50.852;4.400;2022-12-07T17:44:08;10.40;99.90
23579;DHT22;11967;50.852;4.400;2022-12-07T17:46:35;10.30;99.90
23579;DHT22;11967;50.852;4.400;2022-12-07T17:49:02;10.20;99.90
23579;DHT22;11967;50.852;4.400;2022-12-07T17:51:28;10.30;99.90